Česky Dansk Deutsch English Español Suomi Français Magyar Italiano Nederlands norsk Polski Português svenska Türkçe

 

Het Weer

Orange (Frankrijk)

09:30, 22 augustus 2016 (GMT)

NWNNE
WE
SWSSE
Home            
Orange Nimes / Courbessac Montelimar Nimes / Garons Salon Istres Aix Les Milles Marseille / Marignane Montpellier St-Auban-Sur-Durance Mende / Brenoux Le Puy Grenoble / St. Geoirs Le Luc Beziers / Vias Hyeres St-Etienne Boutheon St-Raphael Lyon / Bron Lyon / Satolas Cannes Cassagnes-Begonhes Chambery / Aix-Les-Bains

Om een weerknop op uw website of weblog te plaatsen, copieer onderstaande code en plak die in uw pagina. In het eerste vakje staat HTML-code, in het tweede vakje UBB-code.


Add to Google

Details

Wind speed:5 bf, 20 kn, 10.3 m/s, 23.0 miles/h, 37.0 km/h
Wind direction:N, 350°
Visibility:Greater than 10000 m, 10 km, 32800 ft, 6.2 miles
Clouds:CAVOC
Temperature:24°C, 75°F
Gefühlte Temperatur:25°C, 77°F
Dew-point:9°C, 48°F
Atmospheric pressure:1023 hPa, 767.3 mmHg, 30.21 inHg, 1.010 atm
Relative humidity:38.5 %
METAR:LFMO 220930Z AUTO 35020KT CAVOK 24/09 Q1023 BECMG 36020G30KT

Snelkoppelingen

Actuele weersinformatie van de hele wereld. Voeg locaties toe met het plus (+) symbool. Deze snelkoppelingen kunnen worden toegevoegd aan Google.

Lid van de Technetium groep

website free tracking
StatCounter NetStat W3C Validator

05-07-2022 03:15:23
astro.technetium.be money.technetium.be phote.technetium.be tafeltennistafel.technetium.be www.ligfiets.net